AirNav   Air Wisconsin Airman Trainee
 
 810 users online  

NR80 Caromont RMC Heliport
Gastonia, North Carolina, USA

GOING TO GASTONIA?


FAA INFORMATION EFFECTIVE 25 APRIL 2019

Location

FAA Identifier: NR80
Lat/Long: 35-16-26.6000N / 081-08-21.1000W
35-16.443333N / 081-08.351667W
35.2740556 / -81.1391944
(estimated)
Elevation: 789 ft. / 240 m (estimated)
From city: 3 miles NE of GASTONIA, NC
Time zone: UTC -4 (UTC -5 during Standard Time)
Zip code: 28098

Heliport Operations

Heliport use: Private use. Permission required prior to landing
Activation date: 08/2016
Control tower: no
ARTCC: ATLANTA CENTER
FSS: RALEIGH FLIGHT SERVICE STATION
Attendance: CONTINUOUS
Wind indicator: lighted
Segmented circle: no
Lights: SS-SR

Heliport Communications

WX ASOS at AKH (4 nm S): 135.725 (704-868-9034)
WX ASOS at CLT (10 nm E): PHONE 704-359-0235
WX AWOS-3 at IPJ (13 nm N): 119.675 (704-735-6954)
WX ASOS at UZA (18 nm S): 120.775 (803-981-9388)

Nearby radio navigation aids

VOR radial/distance  VOR name  Freq  Var
CLTr304/10.5CHARLOTTE VOR/DME115.0005W
BZMr178/36.0BARRETTS MOUNTAIN VOR/DME110.8006W

 
NDB name  Hdg/Dist  Freq  Var  ID
STONIA016/5.026006WGHJ --. .... .---
FIRST RIVER093/22.641706WSLP ... .-.. .--.
CHESTER012/29.522006WDCM -.. -.-. --
LANCASTER344/35.840007WLKR .-.. -.- .-.
FIDDLERS142/36.939107WFIQ ..-. .. --.-

Heliport Services

Runway Information

Helipad H1

Dimensions: 60 x 60 ft. / 18 x 18 m
Surface: concrete, in excellent condition
Runway edge lights: PERI
Traffic pattern: leftleft
Markings: basic, in good condition

Heliport Ownership and Management from official FAA records

Ownership: Privately-owned
Owner: CAROMONT REGIONAL MEDICAL CENTER
2525 COURT DRIVE
GASTONIA, NC 28054
Phone 704-834-2801
Manager: DEON LEWIS
2525 COURT DRIVE
GASTONIA, NC 28054
Phone 704-834-2801

Additional Remarks

MEDICAL USE / PPR / CONTACT HOSPITAL EMERGENCY DEPARTMENT AT (704) 834-3987. COMPREHENSIVE 'PILOT BRIEFINGS SHEET' AVAILABLE UPON REQUEST FROM HOSPITAL HELIPORT MANAGER DEON LEWIS AT (704) 834-2809 OR HOSPITAL SECURITY AT (704) 834-2801. USE OF PILOT BRIEFING SHEET INFORMATION IS REQUIRED AND CONTAINS IMPORTANT AERONAUTICAL INFORMATION.
APPROACH DEPARTURE PATHS: 290 / 110 AND 105 / 285 (STANDARD) WITH GREEN LED LEAD-IN LIGHTS.

Instrument Procedures

There are no published instrument procedures at NR80.

Some nearby airports with instrument procedures:

KAKH - Gastonia Municipal Airport (4 nm S)
KCLT - Charlotte/Douglas International Airport (10 nm E)
KIPJ - Lincolnton-Lincoln County Regional Airport (13 nm N)
KUZA - Rock Hill (York Co) Airport-Bryant Field (18 nm S)
KJQF - Concord-Padgett Regional Airport (22 nm E)
 
Loc | Ops | Rwys | IFR | FBO | Links
Com | Nav | Svcs | Stats | Notes
Aerial photo
No photo
 
Airport distance calculator
Flying to Caromont RMC Heliport? Find the distance to fly.

From to NR80

Sunrise and sunset
Times for 20-May-2019
 Local
(UTC-4)
 Zulu
(UTC)
Morning civil twilight05:4909:49
Sunrise06:1810:18
Sunset20:2400:24
Evening civil twilight20:5300:53

Current date and time
Zulu (UTC)  20-May-2019 12:07:40
Local (UTC-4)  20-May-2019 08:07:40
 
METAR
KAKH 
4nm S 
201154Z AUTO VRB04KT 10SM OVC011 22/19 A3005 RMK AO2 SLP168 T02220189 10222 20211 53010
KCLT 
10nm E 
201152Z 21009KT 7SM BKN014 22/19 A3006 RMK AO2 SLP168 T02220189 10228 20211 53010
KIPJ 
13nm N 
201205Z AUTO 24009G14KT 220V300 10SM OVC011 21/19 A3005 RMK AO2 T02100189
KUZA 
18nm S 
201154Z AUTO 22009KT 10SM FEW012 22/19 A3005 RMK AO2 SLP164 T02170194 10222 20206 53007
TAF
KCLT 
10nm E 
201124Z 2012/2118 21007KT P6SM SCT008 BKN011 FM201500 22007KT P6SM SCT070 SCT250 FM201900 23010KT P6SM VCSH BKN090 PROB30 2021/2024 4SM -TSRA OVC025CB FM210000 26004KT P6SM SCT050 SCT250 FM210300 33004KT P6SM FEW250
NOTAMs
Click for the latest NOTAMs
NOTAMs are issued by the DoD/FAA and will open in a separate window not controlled by AirNav.

 

 
 

Would you like to see your business listed on this page?

 If your business provides an interesting product or service to pilots, flight crews, aircraft, or users of the Caromont RMC Heliport, you should consider listing it here.  To start the listing process, click on the button below
 
Add a business
 

Other Pages about Caromont RMC Heliport

Update a link
 
Copyright © AirNav, LLC. All rights reserved. Privacy Policy  Contact